sensor_id;sensor_type;location;lat;lon;timestamp;temperature;humidity
66608;DHT22;53462;39.616;8.824;2022-07-22T00:00:35;26.50;88.50
66608;DHT22;53462;39.616;8.824;2022-07-22T00:03:00;26.40;89.00
66608;DHT22;53462;39.616;8.824;2022-07-22T00:05:26;26.40;89.40
66608;DHT22;53462;39.616;8.824;2022-07-22T00:07:52;26.40;89.30
66608;DHT22;53462;39.616;8.824;2022-07-22T00:10:18;26.60;87.90
66608;DHT22;53462;39.616;8.824;2022-07-22T00:12:44;26.70;86.50
66608;DHT22;53462;39.616;8.824;2022-07-22T00:15:10;26.70;85.90
66608;DHT22;53462;39.616;8.824;2022-07-22T00:17:36;26.50;86.20
66608;DHT22;53462;39.616;8.824;2022-07-22T00:20:04;26.30;86.40
66608;DHT22;53462;39.616;8.824;2022-07-22T00:22:30;26.00;87.30
66608;DHT22;53462;39.616;8.824;2022-07-22T00:24:56;26.00;87.70
66608;DHT22;53462;39.616;8.824;2022-07-22T00:27:22;26.00;87.70
66608;DHT22;53462;39.616;8.824;2022-07-22T00:29:48;26.00;87.10
66608;DHT22;53462;39.616;8.824;2022-07-22T00:32:13;26.00;85.00
66608;DHT22;53462;39.616;8.824;2022-07-22T00:34:39;26.00;82.70
66608;DHT22;53462;39.616;8.824;2022-07-22T00:37:05;26.00;81.50
66608;DHT22;53462;39.616;8.824;2022-07-22T00:39:32;26.00;80.60
66608;DHT22;53462;39.616;8.824;2022-07-22T00:41:59;25.90;78.60
66608;DHT22;53462;39.616;8.824;2022-07-22T00:44:25;25.80;78.30
66608;DHT22;53462;39.616;8.824;2022-07-22T00:46:51;25.80;79.90
66608;DHT22;53462;39.616;8.824;2022-07-22T00:49:17;25.70;81.60
66608;DHT22;53462;39.616;8.824;2022-07-22T00:51:43;25.60;84.00
66608;DHT22;53462;39.616;8.824;2022-07-22T00:54:12;25.50;84.70
66608;DHT22;53462;39.616;8.824;2022-07-22T00:56:38;25.50;84.20
66608;DHT22;53462;39.616;8.824;2022-07-22T00:59:06;25.40;84.70
66608;DHT22;53462;39.616;8.824;2022-07-22T01:01:33;25.40;84.40
66608;DHT22;53462;39.616;8.824;2022-07-22T01:03:59;25.40;84.00
66608;DHT22;53462;39.616;8.824;2022-07-22T01:06:26;25.40;83.80
66608;DHT22;53462;39.616;8.824;2022-07-22T01:08:52;25.40;83.40
66608;DHT22;53462;39.616;8.824;2022-07-22T01:11:19;25.30;83.50
66608;DHT22;53462;39.616;8.824;2022-07-22T01:13:46;25.30;83.60
66608;DHT22;53462;39.616;8.824;2022-07-22T01:16:13;25.30;83.90
66608;DHT22;53462;39.616;8.824;2022-07-22T01:18:40;25.20;83.60
66608;DHT22;53462;39.616;8.824;2022-07-22T01:21:08;25.20;83.60
66608;DHT22;53462;39.616;8.824;2022-07-22T01:23:35;25.20;83.20
66608;DHT22;53462;39.616;8.824;2022-07-22T01:26:01;25.00;83.50
66608;DHT22;53462;39.616;8.824;2022-07-22T01:28:28;24.90;83.70
66608;DHT22;53462;39.616;8.824;2022-07-22T01:30:54;25.00;83.40
66608;DHT22;53462;39.616;8.824;2022-07-22T01:33:20;24.90;82.90
66608;DHT22;53462;39.616;8.824;2022-07-22T01:35:47;24.90;82.90
66608;DHT22;53462;39.616;8.824;2022-07-22T01:38:14;25.00;82.50
66608;DHT22;53462;39.616;8.824;2022-07-22T01:40:41;25.00;81.90
66608;DHT22;53462;39.616;8.824;2022-07-22T01:43:08;25.00;81.30
66608;DHT22;53462;39.616;8.824;2022-07-22T01:45:35;25.00;80.90
66608;DHT22;53462;39.616;8.824;2022-07-22T01:48:02;24.90;80.60
66608;DHT22;53462;39.616;8.824;2022-07-22T01:50:28;24.80;80.90
66608;DHT22;53462;39.616;8.824;2022-07-22T01:52:55;24.60;80.90
66608;DHT22;53462;39.616;8.824;2022-07-22T01:55:22;24.60;80.90
66608;DHT22;53462;39.616;8.824;2022-07-22T01:57:48;24.60;80.80
66608;DHT22;53462;39.616;8.824;2022-07-22T02:00:24;24.70;80.50
66608;DHT22;53462;39.616;8.824;2022-07-22T02:02:50;24.80;80.30
66608;DHT22;53462;39.616;8.824;2022-07-22T02:05:16;24.80;80.00
66608;DHT22;53462;39.616;8.824;2022-07-22T02:07:43;24.90;79.80
66608;DHT22;53462;39.616;8.824;2022-07-22T02:10:09;24.90;79.50
66608;DHT22;53462;39.616;8.824;2022-07-22T02:12:35;25.00;79.50
66608;DHT22;53462;39.616;8.824;2022-07-22T02:15:03;25.10;79.50
66608;DHT22;53462;39.616;8.824;2022-07-22T02:17:29;25.20;78.00
66608;DHT22;53462;39.616;8.824;2022-07-22T02:19:56;25.30;77.40
66608;DHT22;53462;39.616;8.824;2022-07-22T02:22:22;25.40;76.80
66608;DHT22;53462;39.616;8.824;2022-07-22T02:24:47;25.40;76.00
66608;DHT22;53462;39.616;8.824;2022-07-22T02:27:13;25.40;76.00
66608;DHT22;53462;39.616;8.824;2022-07-22T02:29:41;25.30;76.40
66608;DHT22;53462;39.616;8.824;2022-07-22T02:32:07;25.20;77.30
66608;DHT22;53462;39.616;8.824;2022-07-22T02:34:33;25.10;77.70
66608;DHT22;53462;39.616;8.824;2022-07-22T02:36:59;25.10;78.20
66608;DHT22;53462;39.616;8.824;2022-07-22T02:39:25;25.00;78.50
66608;DHT22;53462;39.616;8.824;2022-07-22T02:41:51;24.70;79.30
66608;DHT22;53462;39.616;8.824;2022-07-22T02:44:17;24.70;79.60
66608;DHT22;53462;39.616;8.824;2022-07-22T02:46:43;24.60;79.50
66608;DHT22;53462;39.616;8.824;2022-07-22T02:49:14;24.50;80.20
66608;DHT22;53462;39.616;8.824;2022-07-22T02:51:40;24.50;80.90
66608;DHT22;53462;39.616;8.824;2022-07-22T02:54:06;24.40;81.60
66608;DHT22;53462;39.616;8.824;2022-07-22T02:56:33;24.40;82.40
66608;DHT22;53462;39.616;8.824;2022-07-22T02:58:59;24.40;82.90
66608;DHT22;53462;39.616;8.824;2022-07-22T03:01:25;24.40;83.40
66608;DHT22;53462;39.616;8.824;2022-07-22T03:03:55;24.40;83.70
66608;DHT22;53462;39.616;8.824;2022-07-22T03:06:22;24.40;83.60
66608;DHT22;53462;39.616;8.824;2022-07-22T03:08:59;24.40;83.50
66608;DHT22;53462;39.616;8.824;2022-07-22T03:11:26;24.30;83.70
66608;DHT22;53462;39.616;8.824;2022-07-22T03:13:52;24.20;83.10
66608;DHT22;53462;39.616;8.824;2022-07-22T03:16:19;24.20;83.30
66608;DHT22;53462;39.616;8.824;2022-07-22T03:18:45;24.00;83.20
66608;DHT22;53462;39.616;8.824;2022-07-22T03:21:12;23.90;83.50
66608;DHT22;53462;39.616;8.824;2022-07-22T03:23:38;24.00;83.20
66608;DHT22;53462;39.616;8.824;2022-07-22T03:26:04;24.00;83.20
66608;DHT22;53462;39.616;8.824;2022-07-22T03:28:30;24.00;83.00
66608;DHT22;53462;39.616;8.824;2022-07-22T03:30:56;24.00;83.20
66608;DHT22;53462;39.616;8.824;2022-07-22T03:33:22;24.00;83.00
66608;DHT22;53462;39.616;8.824;2022-07-22T03:35:48;23.90;83.20
66608;DHT22;53462;39.616;8.824;2022-07-22T03:38:14;23.90;83.20
66608;DHT22;53462;39.616;8.824;2022-07-22T03:40:40;24.00;83.00
66608;DHT22;53462;39.616;8.824;2022-07-22T03:43:07;24.00;82.70
66608;DHT22;53462;39.616;8.824;2022-07-22T03:45:33;24.10;82.50
66608;DHT22;53462;39.616;8.824;2022-07-22T03:47:59;24.10;82.50
66608;DHT22;53462;39.616;8.824;2022-07-22T03:50:28;24.00;82.50
66608;DHT22;53462;39.616;8.824;2022-07-22T03:52:54;24.00;82.90
66608;DHT22;53462;39.616;8.824;2022-07-22T03:55:20;23.90;83.10
66608;DHT22;53462;39.616;8.824;2022-07-22T03:57:50;23.90;83.10
66608;DHT22;53462;39.616;8.824;2022-07-22T04:00:22;23.80;83.20
66608;DHT22;53462;39.616;8.824;2022-07-22T04:02:49;23.80;83.70
66608;DHT22;53462;39.616;8.824;2022-07-22T04:05:37;23.80;83.60
66608;DHT22;53462;39.616;8.824;2022-07-22T04:08:04;23.80;82.60
66608;DHT22;53462;39.616;8.824;2022-07-22T04:10:30;23.80;82.40
66608;DHT22;53462;39.616;8.824;2022-07-22T04:12:56;23.80;82.00
66608;DHT22;53462;39.616;8.824;2022-07-22T04:15:41;23.80;81.20
66608;DHT22;53462;39.616;8.824;2022-07-22T04:18:07;23.90;80.60
66608;DHT22;53462;39.616;8.824;2022-07-22T04:20:33;23.90;80.40
66608;DHT22;53462;39.616;8.824;2022-07-22T04:23:29;24.00;80.30
66608;DHT22;53462;39.616;8.824;2022-07-22T04:26:06;24.00;80.20
66608;DHT22;53462;39.616;8.824;2022-07-22T04:28:34;24.10;79.70
66608;DHT22;53462;39.616;8.824;2022-07-22T04:31:02;24.10;78.90
66608;DHT22;53462;39.616;8.824;2022-07-22T04:33:28;24.30;78.10
66608;DHT22;53462;39.616;8.824;2022-07-22T04:35:54;24.50;76.50
66608;DHT22;53462;39.616;8.824;2022-07-22T04:38:20;24.60;76.20
66608;DHT22;53462;39.616;8.824;2022-07-22T04:40:58;24.60;75.70
66608;DHT22;53462;39.616;8.824;2022-07-22T04:43:24;24.50;75.60
66608;DHT22;53462;39.616;8.824;2022-07-22T04:45:51;24.50;75.90
66608;DHT22;53462;39.616;8.824;2022-07-22T04:48:17;24.50;75.60
66608;DHT22;53462;39.616;8.824;2022-07-22T04:50:44;24.60;74.40
66608;DHT22;53462;39.616;8.824;2022-07-22T04:53:10;24.70;74.20
66608;DHT22;53462;39.616;8.824;2022-07-22T04:55:37;24.80;72.70
66608;DHT22;53462;39.616;8.824;2022-07-22T04:58:03;25.00;72.00
66608;DHT22;53462;39.616;8.824;2022-07-22T05:00:29;25.00;70.70
66608;DHT22;53462;39.616;8.824;2022-07-22T05:02:55;25.10;69.80
66608;DHT22;53462;39.616;8.824;2022-07-22T05:05:22;25.20;69.30
66608;DHT22;53462;39.616;8.824;2022-07-22T05:07:48;25.30;69.30
66608;DHT22;53462;39.616;8.824;2022-07-22T05:10:14;25.30;68.30
66608;DHT22;53462;39.616;8.824;2022-07-22T05:12:40;25.40;67.90
66608;DHT22;53462;39.616;8.824;2022-07-22T05:15:06;25.50;67.90
66608;DHT22;53462;39.616;8.824;2022-07-22T05:17:33;25.60;65.00
66608;DHT22;53462;39.616;8.824;2022-07-22T05:20:17;25.70;62.80
66608;DHT22;53462;39.616;8.824;2022-07-22T05:22:43;25.80;62.20
66608;DHT22;53462;39.616;8.824;2022-07-22T05:25:14;25.80;61.90
66608;DHT22;53462;39.616;8.824;2022-07-22T05:27:50;25.90;62.30
66608;DHT22;53462;39.616;8.824;2022-07-22T05:30:18;26.00;61.00
66608;DHT22;53462;39.616;8.824;2022-07-22T05:32:44;26.10;60.80
66608;DHT22;53462;39.616;8.824;2022-07-22T05:35:12;26.00;61.10
66608;DHT22;53462;39.616;8.824;2022-07-22T05:37:38;26.20;60.40
66608;DHT22;53462;39.616;8.824;2022-07-22T05:40:04;26.30;59.10
66608;DHT22;53462;39.616;8.824;2022-07-22T05:42:30;26.40;59.10
66608;DHT22;53462;39.616;8.824;2022-07-22T05:44:56;26.50;59.10
66608;DHT22;53462;39.616;8.824;2022-07-22T05:47:22;26.60;58.80
66608;DHT22;53462;39.616;8.824;2022-07-22T05:49:49;26.70;58.90
66608;DHT22;53462;39.616;8.824;2022-07-22T05:52:15;26.90;59.00
66608;DHT22;53462;39.616;8.824;2022-07-22T05:54:41;27.00;58.40
66608;DHT22;53462;39.616;8.824;2022-07-22T05:57:08;27.10;58.50
66608;DHT22;53462;39.616;8.824;2022-07-22T05:59:36;27.20;58.10
66608;DHT22;53462;39.616;8.824;2022-07-22T06:02:03;27.40;57.50
66608;DHT22;53462;39.616;8.824;2022-07-22T06:04:41;27.50;57.50
66608;DHT22;53462;39.616;8.824;2022-07-22T06:07:07;27.80;56.70
66608;DHT22;53462;39.616;8.824;2022-07-22T06:09:34;28.00;55.80
66608;DHT22;53462;39.616;8.824;2022-07-22T06:12:00;28.30;55.00
66608;DHT22;53462;39.616;8.824;2022-07-22T06:14:26;28.70;54.70
66608;DHT22;53462;39.616;8.824;2022-07-22T06:16:52;28.60;54.20
66608;DHT22;53462;39.616;8.824;2022-07-22T06:19:18;28.30;54.60
66608;DHT22;53462;39.616;8.824;2022-07-22T06:21:44;28.30;54.80
66608;DHT22;53462;39.616;8.824;2022-07-22T06:24:12;28.40;55.10
66608;DHT22;53462;39.616;8.824;2022-07-22T06:26:38;28.50;54.60
66608;DHT22;53462;39.616;8.824;2022-07-22T06:29:04;28.70;55.00
66608;DHT22;53462;39.616;8.824;2022-07-22T06:31:30;28.70;55.30
66608;DHT22;53462;39.616;8.824;2022-07-22T06:33:56;28.90;53.80
66608;DHT22;53462;39.616;8.824;2022-07-22T06:36:28;28.70;54.30
66608;DHT22;53462;39.616;8.824;2022-07-22T06:38:54;29.00;53.70
66608;DHT22;53462;39.616;8.824;2022-07-22T06:41:20;29.20;54.80
66608;DHT22;53462;39.616;8.824;2022-07-22T06:44:06;29.30;53.10
66608;DHT22;53462;39.616;8.824;2022-07-22T06:46:44;29.80;53.00
66608;DHT22;53462;39.616;8.824;2022-07-22T06:49:10;30.00;51.10
66608;DHT22;53462;39.616;8.824;2022-07-22T06:51:36;30.10;50.70
66608;DHT22;53462;39.616;8.824;2022-07-22T06:54:02;30.30;50.30
66608;DHT22;53462;39.616;8.824;2022-07-22T06:56:29;30.20;48.80
66608;DHT22;53462;39.616;8.824;2022-07-22T06:58:55;30.30;49.40
66608;DHT22;53462;39.616;8.824;2022-07-22T07:01:21;30.50;50.00
66608;DHT22;53462;39.616;8.824;2022-07-22T07:03:50;30.70;50.20
66608;DHT22;53462;39.616;8.824;2022-07-22T07:06:16;31.00;48.50
66608;DHT22;53462;39.616;8.824;2022-07-22T07:09:06;31.00;47.50
66608;DHT22;53462;39.616;8.824;2022-07-22T07:11:33;31.00;48.20
66608;DHT22;53462;39.616;8.824;2022-07-22T07:14:03;31.20;48.90
66608;DHT22;53462;39.616;8.824;2022-07-22T07:16:29;31.20;49.30
66608;DHT22;53462;39.616;8.824;2022-07-22T07:18:55;31.20;48.90
66608;DHT22;53462;39.616;8.824;2022-07-22T07:21:21;31.10;46.90
66608;DHT22;53462;39.616;8.824;2022-07-22T07:23:47;31.10;46.30
66608;DHT22;53462;39.616;8.824;2022-07-22T07:26:13;31.10;47.80
66608;DHT22;53462;39.616;8.824;2022-07-22T07:28:39;31.50;47.10
66608;DHT22;53462;39.616;8.824;2022-07-22T07:31:29;31.40;46.50
66608;DHT22;53462;39.616;8.824;2022-07-22T07:33:56;31.70;46.60
66608;DHT22;53462;39.616;8.824;2022-07-22T07:36:22;32.20;45.80
66608;DHT22;53462;39.616;8.824;2022-07-22T07:38:49;32.10;44.80
66608;DHT22;53462;39.616;8.824;2022-07-22T07:41:17;32.30;44.50
66608;DHT22;53462;39.616;8.824;2022-07-22T07:43:46;32.80;43.30
66608;DHT22;53462;39.616;8.824;2022-07-22T07:46:12;32.80;43.40
66608;DHT22;53462;39.616;8.824;2022-07-22T07:48:39;32.80;43.20
66608;DHT22;53462;39.616;8.824;2022-07-22T07:51:05;32.90;43.10
66608;DHT22;53462;39.616;8.824;2022-07-22T07:53:32;33.00;42.30
66608;DHT22;53462;39.616;8.824;2022-07-22T07:55:58;33.00;40.90
66608;DHT22;53462;39.616;8.824;2022-07-22T07:58:24;33.50;40.90
66608;DHT22;53462;39.616;8.824;2022-07-22T08:00:50;33.90;40.00
66608;DHT22;53462;39.616;8.824;2022-07-22T08:03:16;33.90;39.20
66608;DHT22;53462;39.616;8.824;2022-07-22T08:05:42;34.30;37.50
66608;DHT22;53462;39.616;8.824;2022-07-22T08:08:14;34.60;37.00
66608;DHT22;53462;39.616;8.824;2022-07-22T08:10:40;34.40;36.30
66608;DHT22;53462;39.616;8.824;2022-07-22T08:13:25;34.40;35.90
66608;DHT22;53462;39.616;8.824;2022-07-22T08:16:10;34.80;34.50
66608;DHT22;53462;39.616;8.824;2022-07-22T08:18:37;35.00;32.30
66608;DHT22;53462;39.616;8.824;2022-07-22T08:21:03;35.20;34.90
66608;DHT22;53462;39.616;8.824;2022-07-22T08:24:02;35.30;34.60
66608;DHT22;53462;39.616;8.824;2022-07-22T08:26:28;34.70;35.50
66608;DHT22;53462;39.616;8.824;2022-07-22T08:28:54;34.70;35.50
66608;DHT22;53462;39.616;8.824;2022-07-22T08:31:20;35.10;35.30
66608;DHT22;53462;39.616;8.824;2022-07-22T08:33:47;35.10;35.90
66608;DHT22;53462;39.616;8.824;2022-07-22T08:36:13;35.50;36.20
66608;DHT22;53462;39.616;8.824;2022-07-22T08:38:39;35.90;34.70
66608;DHT22;53462;39.616;8.824;2022-07-22T08:41:05;36.00;35.30
66608;DHT22;53462;39.616;8.824;2022-07-22T08:43:36;36.10;35.40
66608;DHT22;53462;39.616;8.824;2022-07-22T08:46:05;35.90;35.00
66608;DHT22;53462;39.616;8.824;2022-07-22T08:48:50;36.10;35.10
66608;DHT22;53462;39.616;8.824;2022-07-22T08:51:24;35.30;36.10
66608;DHT22;53462;39.616;8.824;2022-07-22T08:54:12;35.70;36.30
66608;DHT22;53462;39.616;8.824;2022-07-22T08:56:38;36.00;36.80
66608;DHT22;53462;39.616;8.824;2022-07-22T08:59:05;36.40;35.30
66608;DHT22;53462;39.616;8.824;2022-07-22T09:01:32;36.50;34.20
66608;DHT22;53462;39.616;8.824;2022-07-22T09:03:59;36.70;35.00
66608;DHT22;53462;39.616;8.824;2022-07-22T09:06:30;36.90;34.00
66608;DHT22;53462;39.616;8.824;2022-07-22T09:09:05;36.30;34.50
66608;DHT22;53462;39.616;8.824;2022-07-22T09:12:07;36.60;35.00
66608;DHT22;53462;39.616;8.824;2022-07-22T09:15:01;36.80;35.10
66608;DHT22;53462;39.616;8.824;2022-07-22T09:18:04;36.60;33.80
66608;DHT22;53462;39.616;8.824;2022-07-22T09:20:38;36.90;33.90
66608;DHT22;53462;39.616;8.824;2022-07-22T09:23:24;37.00;34.10
66608;DHT22;53462;39.616;8.824;2022-07-22T09:25:53;36.90;33.10
66608;DHT22;53462;39.616;8.824;2022-07-22T09:28:37;37.10;34.40
66608;DHT22;53462;39.616;8.824;2022-07-22T09:31:30;37.50;32.70
66608;DHT22;53462;39.616;8.824;2022-07-22T09:34:27;36.90;33.10
66608;DHT22;53462;39.616;8.824;2022-07-22T09:36:55;36.80;32.70
66608;DHT22;53462;39.616;8.824;2022-07-22T09:39:32;37.30;32.70
66608;DHT22;53462;39.616;8.824;2022-07-22T09:42:07;37.60;32.50
66608;DHT22;53462;39.616;8.824;2022-07-22T09:44:34;37.60;32.80
66608;DHT22;53462;39.616;8.824;2022-07-22T09:47:27;37.90;32.10
66608;DHT22;53462;39.616;8.824;2022-07-22T09:50:31;38.00;32.60
66608;DHT22;53462;39.616;8.824;2022-07-22T09:53:20;38.20;32.10
66608;DHT22;53462;39.616;8.824;2022-07-22T09:55:55;38.70;31.00
66608;DHT22;53462;39.616;8.824;2022-07-22T09:58:22;38.80;30.70
66608;DHT22;53462;39.616;8.824;2022-07-22T10:00:49;38.70;31.40
66608;DHT22;53462;39.616;8.824;2022-07-22T10:03:28;39.00;30.90
66608;DHT22;53462;39.616;8.824;2022-07-22T10:05:57;38.80;31.40
66608;DHT22;53462;39.616;8.824;2022-07-22T10:08:25;38.90;31.10
66608;DHT22;53462;39.616;8.824;2022-07-22T10:10:53;39.10;30.10
66608;DHT22;53462;39.616;8.824;2022-07-22T10:13:23;38.80;30.70
66608;DHT22;53462;39.616;8.824;2022-07-22T10:15:50;39.20;30.20
66608;DHT22;53462;39.616;8.824;2022-07-22T10:18:19;39.50;30.00
66608;DHT22;53462;39.616;8.824;2022-07-22T10:20:47;39.90;30.10
66608;DHT22;53462;39.616;8.824;2022-07-22T10:23:14;39.70;28.80
66608;DHT22;53462;39.616;8.824;2022-07-22T10:25:54;38.70;30.80
66608;DHT22;53462;39.616;8.824;2022-07-22T10:28:30;38.90;30.10
66608;DHT22;53462;39.616;8.824;2022-07-22T10:31:18;39.30;29.70
66608;DHT22;53462;39.616;8.824;2022-07-22T10:33:45;39.30;28.30
66608;DHT22;53462;39.616;8.824;2022-07-22T10:36:13;38.70;28.70
66608;DHT22;53462;39.616;8.824;2022-07-22T10:41:37;39.20;29.80
66608;DHT22;53462;39.616;8.824;2022-07-22T10:44:04;39.10;28.90
66608;DHT22;53462;39.616;8.824;2022-07-22T10:46:57;39.70;30.00
66608;DHT22;53462;39.616;8.824;2022-07-22T10:49:25;39.60;28.30
66608;DHT22;53462;39.616;8.824;2022-07-22T10:54:32;40.40;28.70
66608;DHT22;53462;39.616;8.824;2022-07-22T10:57:00;40.90;28.80
66608;DHT22;53462;39.616;8.824;2022-07-22T10:59:26;40.80;27.70
66608;DHT22;53462;39.616;8.824;2022-07-22T11:01:53;40.50;28.00
66608;DHT22;53462;39.616;8.824;2022-07-22T11:04:25;39.50;28.20
66608;DHT22;53462;39.616;8.824;2022-07-22T11:06:53;40.00;28.60
66608;DHT22;53462;39.616;8.824;2022-07-22T11:09:22;40.60;28.60
66608;DHT22;53462;39.616;8.824;2022-07-22T11:11:53;40.90;27.60
66608;DHT22;53462;39.616;8.824;2022-07-22T11:16:49;39.80;28.40
66608;DHT22;53462;39.616;8.824;2022-07-22T11:19:20;40.30;28.60
66608;DHT22;53462;39.616;8.824;2022-07-22T11:21:49;41.00;27.80
66608;DHT22;53462;39.616;8.824;2022-07-22T11:24:16;41.10;27.80
66608;DHT22;53462;39.616;8.824;2022-07-22T11:29:33;41.60;27.30
66608;DHT22;53462;39.616;8.824;2022-07-22T11:32:00;41.30;27.50
66608;DHT22;53462;39.616;8.824;2022-07-22T11:34:27;41.10;28.10
66608;DHT22;53462;39.616;8.824;2022-07-22T11:36:54;41.10;28.40
66608;DHT22;53462;39.616;8.824;2022-07-22T11:39:26;41.50;28.20
66608;DHT22;53462;39.616;8.824;2022-07-22T11:41:53;41.80;27.90
66608;DHT22;53462;39.616;8.824;2022-07-22T11:44:23;41.90;27.90
66608;DHT22;53462;39.616;8.824;2022-07-22T11:46:49;41.60;27.70
66608;DHT22;53462;39.616;8.824;2022-07-22T11:49:18;41.00;28.60
66608;DHT22;53462;39.616;8.824;2022-07-22T11:51:44;40.90;28.10
66608;DHT22;53462;39.616;8.824;2022-07-22T11:54:11;40.70;28.40
66608;DHT22;53462;39.616;8.824;2022-07-22T11:56:37;40.90;28.40
66608;DHT22;53462;39.616;8.824;2022-07-22T11:59:04;41.60;28.30
66608;DHT22;53462;39.616;8.824;2022-07-22T12:01:35;42.00;27.50
66608;DHT22;53462;39.616;8.824;2022-07-22T12:04:07;41.80;27.60
66608;DHT22;53462;39.616;8.824;2022-07-22T12:06:35;41.60;27.80
66608;DHT22;53462;39.616;8.824;2022-07-22T12:09:20;42.00;27.50
66608;DHT22;53462;39.616;8.824;2022-07-22T12:11:48;41.90;27.10
66608;DHT22;53462;39.616;8.824;2022-07-22T12:14:17;42.10;26.40
66608;DHT22;53462;39.616;8.824;2022-07-22T12:16:53;42.10;26.80
66608;DHT22;53462;39.616;8.824;2022-07-22T12:19:19;42.20;26.80
66608;DHT22;53462;39.616;8.824;2022-07-22T12:21:57;42.20;27.00
66608;DHT22;53462;39.616;8.824;2022-07-22T12:26:59;42.00;26.40
66608;DHT22;53462;39.616;8.824;2022-07-22T12:29:43;42.10;26.00
66608;DHT22;53462;39.616;8.824;2022-07-22T12:32:16;42.00;25.50
66608;DHT22;53462;39.616;8.824;2022-07-22T12:34:54;41.90;25.30
66608;DHT22;53462;39.616;8.824;2022-07-22T12:37:25;42.00;25.60
66608;DHT22;53462;39.616;8.824;2022-07-22T12:40:06;41.80;25.00
66608;DHT22;53462;39.616;8.824;2022-07-22T12:42:38;41.80;24.70
66608;DHT22;53462;39.616;8.824;2022-07-22T12:45:16;41.90;25.10
66608;DHT22;53462;39.616;8.824;2022-07-22T12:47:54;41.50;25.30
66608;DHT22;53462;39.616;8.824;2022-07-22T12:50:35;41.40;24.10
66608;DHT22;53462;39.616;8.824;2022-07-22T12:53:08;41.30;23.00
66608;DHT22;53462;39.616;8.824;2022-07-22T12:55:37;41.20;23.20
66608;DHT22;53462;39.616;8.824;2022-07-22T12:58:04;41.10;23.40
66608;DHT22;53462;39.616;8.824;2022-07-22T13:00:33;41.10;22.80
66608;DHT22;53462;39.616;8.824;2022-07-22T13:02:59;41.10;24.30
66608;DHT22;53462;39.616;8.824;2022-07-22T13:05:26;40.90;24.50
66608;DHT22;53462;39.616;8.824;2022-07-22T13:07:53;40.70;24.10
66608;DHT22;53462;39.616;8.824;2022-07-22T13:10:20;40.70;23.70
66608;DHT22;53462;39.616;8.824;2022-07-22T13:12:47;40.70;24.20
66608;DHT22;53462;39.616;8.824;2022-07-22T13:15:13;40.80;24.70
66608;DHT22;53462;39.616;8.824;2022-07-22T13:17:40;40.80;24.00
66608;DHT22;53462;39.616;8.824;2022-07-22T13:20:08;40.40;23.20
66608;DHT22;53462;39.616;8.824;2022-07-22T13:22:35;40.30;23.80
66608;DHT22;53462;39.616;8.824;2022-07-22T13:25:01;40.20;23.10
66608;DHT22;53462;39.616;8.824;2022-07-22T13:27:27;40.20;24.30
66608;DHT22;53462;39.616;8.824;2022-07-22T13:29:52;40.30;23.70
66608;DHT22;53462;39.616;8.824;2022-07-22T13:32:18;40.40;23.70
66608;DHT22;53462;39.616;8.824;2022-07-22T13:34:44;40.40;25.10
66608;DHT22;53462;39.616;8.824;2022-07-22T13:37:10;40.20;25.20
66608;DHT22;53462;39.616;8.824;2022-07-22T13:39:37;39.80;25.10
66608;DHT22;53462;39.616;8.824;2022-07-22T13:42:03;39.70;24.40
66608;DHT22;53462;39.616;8.824;2022-07-22T13:44:29;39.50;25.60
66608;DHT22;53462;39.616;8.824;2022-07-22T13:46:58;39.30;26.10
66608;DHT22;53462;39.616;8.824;2022-07-22T13:49:25;39.40;25.00
66608;DHT22;53462;39.616;8.824;2022-07-22T13:51:51;39.30;26.20
66608;DHT22;53462;39.616;8.824;2022-07-22T13:54:18;39.40;25.10
66608;DHT22;53462;39.616;8.824;2022-07-22T13:56:45;39.30;25.30
66608;DHT22;53462;39.616;8.824;2022-07-22T13:59:16;39.40;25.00
66608;DHT22;53462;39.616;8.824;2022-07-22T14:01:43;39.20;25.40
66608;DHT22;53462;39.616;8.824;2022-07-22T14:04:09;39.00;25.70
66608;DHT22;53462;39.616;8.824;2022-07-22T14:06:35;39.20;25.80
66608;DHT22;53462;39.616;8.824;2022-07-22T14:09:02;39.10;25.80
66608;DHT22;53462;39.616;8.824;2022-07-22T14:11:29;39.10;26.10
66608;DHT22;53462;39.616;8.824;2022-07-22T14:13:55;39.10;25.50
66608;DHT22;53462;39.616;8.824;2022-07-22T14:16:20;38.90;24.90
66608;DHT22;53462;39.616;8.824;2022-07-22T14:19:09;38.80;24.90
66608;DHT22;53462;39.616;8.824;2022-07-22T14:21:36;38.70;25.50
66608;DHT22;53462;39.616;8.824;2022-07-22T14:24:05;38.50;26.40
66608;DHT22;53462;39.616;8.824;2022-07-22T14:26:31;38.50;25.70
66608;DHT22;53462;39.616;8.824;2022-07-22T14:28:57;38.50;25.40
66608;DHT22;53462;39.616;8.824;2022-07-22T14:31:23;38.50;26.70
66608;DHT22;53462;39.616;8.824;2022-07-22T14:33:49;38.60;27.20
66608;DHT22;53462;39.616;8.824;2022-07-22T14:36:15;38.40;26.00
66608;DHT22;53462;39.616;8.824;2022-07-22T14:38:42;38.40;27.50
66608;DHT22;53462;39.616;8.824;2022-07-22T14:41:08;38.40;26.90
66608;DHT22;53462;39.616;8.824;2022-07-22T14:43:35;38.20;26.70
66608;DHT22;53462;39.616;8.824;2022-07-22T14:46:02;38.10;27.30
66608;DHT22;53462;39.616;8.824;2022-07-22T14:48:30;38.10;28.50
66608;DHT22;53462;39.616;8.824;2022-07-22T14:50:57;38.10;28.20
66608;DHT22;53462;39.616;8.824;2022-07-22T14:53:23;38.10;27.40
66608;DHT22;53462;39.616;8.824;2022-07-22T14:55:49;37.90;27.30
66608;DHT22;53462;39.616;8.824;2022-07-22T14:58:15;37.90;29.30
66608;DHT22;53462;39.616;8.824;2022-07-22T15:00:41;37.80;28.50
66608;DHT22;53462;39.616;8.824;2022-07-22T15:03:08;37.70;28.10
66608;DHT22;53462;39.616;8.824;2022-07-22T15:05:34;37.70;28.40
66608;DHT22;53462;39.616;8.824;2022-07-22T15:08:00;37.60;28.60
66608;DHT22;53462;39.616;8.824;2022-07-22T15:10:25;37.60;29.30
66608;DHT22;53462;39.616;8.824;2022-07-22T15:12:51;37.60;28.80
66608;DHT22;53462;39.616;8.824;2022-07-22T15:15:17;37.40;28.90
66608;DHT22;53462;39.616;8.824;2022-07-22T15:17:43;37.50;28.90
66608;DHT22;53462;39.616;8.824;2022-07-22T15:20:12;37.40;29.10
66608;DHT22;53462;39.616;8.824;2022-07-22T15:22:38;37.30;28.60
66608;DHT22;53462;39.616;8.824;2022-07-22T15:25:04;37.40;26.50
66608;DHT22;53462;39.616;8.824;2022-07-22T15:27:30;37.40;27.70
66608;DHT22;53462;39.616;8.824;2022-07-22T15:29:56;37.40;28.20
66608;DHT22;53462;39.616;8.824;2022-07-22T15:32:22;37.40;28.70
66608;DHT22;53462;39.616;8.824;2022-07-22T15:34:48;37.30;28.90
66608;DHT22;53462;39.616;8.824;2022-07-22T15:37:14;37.20;29.30
66608;DHT22;53462;39.616;8.824;2022-07-22T15:39:42;37.10;28.80
66608;DHT22;53462;39.616;8.824;2022-07-22T15:42:07;37.10;28.80
66608;DHT22;53462;39.616;8.824;2022-07-22T15:44:33;37.10;28.80
66608;DHT22;53462;39.616;8.824;2022-07-22T15:46:59;36.90;29.10
66608;DHT22;53462;39.616;8.824;2022-07-22T15:49:25;36.80;28.20
66608;DHT22;53462;39.616;8.824;2022-07-22T15:51:51;36.80;29.00
66608;DHT22;53462;39.616;8.824;2022-07-22T15:54:17;36.80;28.80